Time;durP1;ratioP1;P1;durP2;ratioP2;P2;SDS_P1;SDS_P2;PMS_P1;PMS_P2;Temp;Humidity;BMP_temperature;BMP_pressure;BME280_temperature;BME280_humidity;BME280_pressure;Samples;Min_cycle;Max_cycle;Signal;HPM_P1;HPM_P2
2023/07/28 00:00:14;;;;;;;5.35;3.20;;;;;;;;;;5016044;28;20153;-81
2023/07/28 00:02:40;;;;;;;5.65;3.53;;;;;;;;;;5016498;28;20069;-81
2023/07/28 00:05:07;;;;;;;5.25;3.30;;;;;;;;;;5016901;28;20042;-79
2023/07/28 00:07:36;;;;;;;5.10;2.70;;;;;;;;;;5012201;28;20421;-82
2023/07/28 00:10:02;;;;;;;5.18;3.10;;;;;;;;;;5016109;28;20050;-79
2023/07/28 00:12:29;;;;;;;6.28;3.67;;;;;;;;;;5016435;28;20057;-82
2023/07/28 00:14:55;;;;;;;5.68;3.88;;;;;;;;;;5015872;28;20520;-79
2023/07/28 00:17:23;;;;;;;5.45;3.55;;;;;;;;;;5012534;28;20046;-81
2023/07/28 00:19:50;;;;;;;5.68;3.72;;;;;;;;;;5015232;28;20054;-79
2023/07/28 00:22:16;;;;;;;6.05;3.80;;;;;;;;;;5009812;28;20048;-81
2023/07/28 00:24:43;;;;;;;5.90;3.67;;;;;;;;;;5013682;28;20072;-82
2023/07/28 00:27:12;;;;;;;7.65;4.45;;;;;;;;;;5014369;28;20074;-81
2023/07/28 00:29:39;;;;;;;7.65;4.55;;;;;;;;;;5010628;28;20157;-80
2023/07/28 00:32:06;;;;;;;7.07;4.45;;;;;;;;;;5010125;28;20053;-82
2023/07/28 00:34:34;;;;;;;8.43;4.95;;;;;;;;;;5014340;28;20042;-80
2023/07/28 00:37:01;;;;;;;6.25;4.50;;;;;;;;;;5015065;28;20112;-82
2023/07/28 00:39:30;;;;;;;7.70;5.47;;;;;;;;;;5010019;28;20043;-82
2023/07/28 00:41:56;;;;;;;7.18;4.68;;;;;;;;;;5014736;28;20050;-81
2023/07/28 00:44:25;;;;;;;6.10;4.22;;;;;;;;;;5013521;28;20050;-80
2023/07/28 00:46:51;;;;;;;6.22;4.28;;;;;;;;;;5014745;28;20056;-82
2023/07/28 00:49:18;;;;;;;6.50;4.10;;;;;;;;;;5012276;28;20041;-82
2023/07/28 00:51:46;;;;;;;6.35;4.00;;;;;;;;;;5014064;28;20054;-82
2023/07/28 00:54:13;;;;;;;5.50;3.67;;;;;;;;;;5014084;28;20038;-81
2023/07/28 00:56:39;;;;;;;6.30;3.83;;;;;;;;;;5011041;28;20524;-82
2023/07/28 00:59:06;;;;;;;5.35;3.60;;;;;;;;;;5014787;28;20050;-81
2023/07/28 01:01:33;;;;;;;5.95;3.60;;;;;;;;;;5015465;28;20041;-81
2023/07/28 01:03:59;;;;;;;6.40;4.32;;;;;;;;;;5015107;28;20049;-81
2023/07/28 01:06:36;;;;;;;6.90;4.00;;;;;;;;;;5015886;28;20091;-81
2023/07/28 01:09:06;;;;;;;5.82;3.78;;;;;;;;;;5017435;28;20044;-81
2023/07/28 01:11:33;;;;;;;5.30;3.22;;;;;;;;;;5014413;28;20050;-81
2023/07/28 01:13:59;;;;;;;5.57;3.63;;;;;;;;;;5014042;28;20050;-80
2023/07/28 01:16:26;;;;;;;8.43;4.53;;;;;;;;;;5014393;28;20060;-81
2023/07/28 01:18:53;;;;;;;6.88;4.25;;;;;;;;;;5013978;28;20072;-81
2023/07/28 01:21:26;;;;;;;6.93;4.43;;;;;;;;;;5013888;28;20040;-81
2023/07/28 01:24:01;;;;;;;6.45;4.30;;;;;;;;;;5013762;28;20053;-81
2023/07/28 01:26:33;;;;;;;6.68;4.10;;;;;;;;;;5013715;28;20038;-81
2023/07/28 01:29:00;;;;;;;6.65;4.10;;;;;;;;;;5014115;28;20046;-81
2023/07/28 01:31:27;;;;;;;7.55;4.43;;;;;;;;;;5014570;28;20053;-81
2023/07/28 01:33:53;;;;;;;6.22;4.40;;;;;;;;;;5012970;28;20058;-82
2023/07/28 01:36:20;;;;;;;7.25;4.80;;;;;;;;;;5012442;28;20073;-81
2023/07/28 01:38:46;;;;;;;6.85;4.30;;;;;;;;;;5013723;28;20072;-81
2023/07/28 01:41:13;;;;;;;6.10;3.83;;;;;;;;;;5012847;28;20069;-82
2023/07/28 01:43:41;;;;;;;6.18;4.20;;;;;;;;;;5012792;28;20054;-81
2023/07/28 01:46:08;;;;;;;6.60;4.18;;;;;;;;;;5011720;28;20042;-81
2023/07/28 01:48:35;;;;;;;5.55;3.70;;;;;;;;;;5014540;28;20052;-82
2023/07/28 01:51:01;;;;;;;6.45;4.03;;;;;;;;;;5011208;28;20417;-81
2023/07/28 01:53:28;;;;;;;7.13;4.47;;;;;;;;;;5013429;28;20041;-82
2023/07/28 01:55:54;;;;;;;8.02;4.00;;;;;;;;;;5014095;28;20052;-81
2023/07/28 01:58:21;;;;;;;5.55;3.60;;;;;;;;;;5015560;28;20049;-81
2023/07/28 02:00:49;;;;;;;5.97;3.40;;;;;;;;;;5013172;28;20056;-81
2023/07/28 02:03:15;;;;;;;5.60;3.42;;;;;;;;;;5014331;28;20543;-81
2023/07/28 02:05:42;;;;;;;5.38;2.83;;;;;;;;;;5010807;28;20412;-80
2023/07/28 02:08:08;;;;;;;6.63;3.30;;;;;;;;;;5015603;28;21193;-80
2023/07/28 02:10:35;;;;;;;5.63;3.30;;;;;;;;;;5013454;28;20113;-81
2023/07/28 02:13:02;;;;;;;6.53;2.90;;;;;;;;;;5016084;28;20076;-81
2023/07/28 02:15:28;;;;;;;6.85;3.45;;;;;;;;;;5015492;28;20085;-80
2023/07/28 02:17:56;;;;;;;5.68;3.85;;;;;;;;;;5016538;28;20412;-80
2023/07/28 02:20:22;;;;;;;6.68;3.47;;;;;;;;;;5016384;28;20050;-80
2023/07/28 02:22:49;;;;;;;7.25;3.60;;;;;;;;;;5020770;28;20389;-80
2023/07/28 02:25:16;;;;;;;5.97;3.58;;;;;;;;;;5023435;28;20050;-79
2023/07/28 02:27:42;;;;;;;5.97;3.58;;;;;;;;;;5022596;28;20060;-80
2023/07/28 02:30:10;;;;;;;6.40;3.83;;;;;;;;;;5018913;28;20046;-81
2023/07/28 02:32:37;;;;;;;7.18;3.63;;;;;;;;;;5013637;28;20050;-81
2023/07/28 02:35:06;;;;;;;5.43;3.42;;;;;;;;;;5015753;28;20046;-80
2023/07/28 02:37:33;;;;;;;7.28;3.90;;;;;;;;;;5011726;28;20050;-81
2023/07/28 02:39:59;;;;;;;5.32;3.80;;;;;;;;;;5016234;28;20112;-82
2023/07/28 02:42:26;;;;;;;4.85;3.03;;;;;;;;;;5016485;28;20586;-82
2023/07/28 02:44:53;;;;;;;6.72;3.42;;;;;;;;;;5016750;28;20050;-80
2023/07/28 02:47:19;;;;;;;5.80;3.45;;;;;;;;;;5016971;28;20040;-82
2023/07/28 02:49:46;;;;;;;7.28;3.70;;;;;;;;;;5017163;28;20046;-81
2023/07/28 02:52:14;;;;;;;5.22;3.47;;;;;;;;;;5016621;28;20057;-82
2023/07/28 02:54:41;;;;;;;6.80;4.50;;;;;;;;;;5017885;28;20041;-82
2023/07/28 02:57:07;;;;;;;6.75;3.72;;;;;;;;;;5013749;28;20048;-81
2023/07/28 02:59:34;;;;;;;6.43;4.03;;;;;;;;;;5015444;28;20057;-81
2023/07/28 03:02:00;;;;;;;6.25;4.07;;;;;;;;;;5014618;28;20061;-82
2023/07/28 03:04:27;;;;;;;6.85;3.90;;;;;;;;;;5018108;28;20053;-81
2023/07/28 03:06:54;;;;;;;7.47;3.83;;;;;;;;;;5020797;28;20105;-81
2023/07/28 03:09:21;;;;;;;5.80;3.50;;;;;;;;;;5025377;28;20038;-80
2023/07/28 03:11:48;;;;;;;6.28;3.45;;;;;;;;;;5017818;28;20057;-82
2023/07/28 03:14:15;;;;;;;5.75;3.22;;;;;;;;;;5024186;28;20553;-80
2023/07/28 03:16:42;;;;;;;6.07;3.58;;;;;;;;;;5018660;28;20056;-81
2023/07/28 03:19:09;;;;;;;5.50;3.30;;;;;;;;;;5016798;28;20046;-81
2023/07/28 03:21:35;;;;;;;6.28;3.15;;;;;;;;;;5016450;28;20049;-81
2023/07/28 03:24:02;;;;;;;5.43;2.70;;;;;;;;;;5017472;28;20050;-82
2023/07/28 03:26:30;;;;;;;5.30;2.67;;;;;;;;;;5017548;28;20125;-79
2023/07/28 03:28:56;;;;;;;5.40;3.03;;;;;;;;;;5019311;28;20497;-81
2023/07/28 03:31:23;;;;;;;4.97;2.50;;;;;;;;;;5015191;28;20069;-81
2023/07/28 03:33:50;;;;;;;6.32;3.03;;;;;;;;;;5013492;28;20049;-81
2023/07/28 03:36:16;;;;;;;6.50;2.95;;;;;;;;;;5014967;28;20568;-81
2023/07/28 03:38:43;;;;;;;6.03;3.08;;;;;;;;;;5014075;28;20129;-81
2023/07/28 03:41:09;;;;;;;5.50;3.30;;;;;;;;;;5015716;28;20663;-80
2023/07/28 03:43:37;;;;;;;6.28;3.10;;;;;;;;;;5015396;28;20476;-81
2023/07/28 03:46:04;;;;;;;6.78;3.30;;;;;;;;;;5016041;28;20052;-80
2023/07/28 03:48:30;;;;;;;5.97;3.70;;;;;;;;;;5017013;28;20042;-80
2023/07/28 03:50:57;;;;;;;5.90;4.28;;;;;;;;;;5016580;28;20142;-80
2023/07/28 03:53:23;;;;;;;6.15;3.50;;;;;;;;;;5017552;28;20053;-80
2023/07/28 03:55:50;;;;;;;7.68;3.88;;;;;;;;;;5017261;28;20052;-80
2023/07/28 03:58:17;;;;;;;7.07;3.65;;;;;;;;;;5018998;28;20493;-80
2023/07/28 04:00:44;;;;;;;6.88;4.10;;;;;;;;;;5018367;28;20129;-79
2023/07/28 04:03:11;;;;;;;6.57;4.03;;;;;;;;;;5017410;28;20050;-80
2023/07/28 04:05:37;;;;;;;6.93;3.80;;;;;;;;;;5017983;28;20053;-79
2023/07/28 04:08:04;;;;;;;6.22;3.80;;;;;;;;;;5016800;28;20076;-79
2023/07/28 04:10:31;;;;;;;5.70;3.67;;;;;;;;;;5017577;28;20084;-80
2023/07/28 04:12:58;;;;;;;6.00;3.92;;;;;;;;;;5018260;28;20042;-80
2023/07/28 04:15:24;;;;;;;7.35;4.10;;;;;;;;;;5015561;28;20073;-80
2023/07/28 04:17:52;;;;;;;6.60;4.03;;;;;;;;;;5017464;28;20068;-80
2023/07/28 04:20:19;;;;;;;7.25;3.72;;;;;;;;;;5014749;28;20057;-80
2023/07/28 04:22:45;;;;;;;6.95;4.45;;;;;;;;;;5016603;28;20065;-81
2023/07/28 04:25:12;;;;;;;6.03;3.80;;;;;;;;;;5017343;28;20152;-77
2023/07/28 04:27:38;;;;;;;5.97;3.80;;;;;;;;;;5016844;28;20501;-80
2023/07/28 04:30:06;;;;;;;7.88;3.78;;;;;;;;;;5013391;28;20453;-81
2023/07/28 04:32:32;;;;;;;7.35;4.25;;;;;;;;;;5014212;28;20134;-79
2023/07/28 04:35:00;;;;;;;6.43;4.05;;;;;;;;;;5019861;28;20501;-80
2023/07/28 04:37:27;;;;;;;6.03;3.65;;;;;;;;;;5016946;28;20046;-81
2023/07/28 04:39:53;;;;;;;7.38;3.60;;;;;;;;;;5014813;28;20048;-82
2023/07/28 04:42:20;;;;;;;8.63;3.67;;;;;;;;;;5013761;28;20049;-81
2023/07/28 04:44:46;;;;;;;8.65;3.90;;;;;;;;;;5015170;28;20041;-81
2023/07/28 04:47:13;;;;;;;6.75;3.97;;;;;;;;;;5013637;28;20125;-80
2023/07/28 04:49:40;;;;;;;6.35;3.90;;;;;;;;;;5014252;28;20045;-82
2023/07/28 04:52:08;;;;;;;7.88;4.85;;;;;;;;;;5014577;28;20547;-81
2023/07/28 04:54:35;;;;;;;7.80;4.00;;;;;;;;;;5011327;28;20057;-82
2023/07/28 04:57:01;;;;;;;6.50;3.70;;;;;;;;;;5015919;28;20523;-80
2023/07/28 04:59:28;;;;;;;7.00;3.80;;;;;;;;;;5020639;28;20065;-80
2023/07/28 05:01:54;;;;;;;7.15;3.90;;;;;;;;;;5024536;28;20053;-81
2023/07/28 05:04:21;;;;;;;7.38;4.30;;;;;;;;;;5024470;28;20097;-81
2023/07/28 05:06:47;;;;;;;6.10;4.47;;;;;;;;;;5024398;28;20046;-80
2023/07/28 05:09:15;;;;;;;8.45;3.70;;;;;;;;;;5025167;28;20053;-80
2023/07/28 05:11:42;;;;;;;7.10;3.95;;;;;;;;;;5021944;28;20445;-81
2023/07/28 05:14:09;;;;;;;5.90;3.30;;;;;;;;;;5015130;28;20100;-81
2023/07/28 05:16:36;;;;;;;5.28;2.97;;;;;;;;;;5010540;28;20046;-82
2023/07/28 05:19:02;;;;;;;5.47;3.30;;;;;;;;;;5017953;28;20053;-81
2023/07/28 05:21:29;;;;;;;4.95;3.00;;;;;;;;;;5011352;28;20052;-80
2023/07/28 05:23:56;;;;;;;5.93;3.05;;;;;;;;;;5010774;28;20501;-81
2023/07/28 05:26:24;;;;;;;6.78;3.88;;;;;;;;;;5011029;28;20052;-82
2023/07/28 05:28:51;;;;;;;6.55;3.63;;;;;;;;;;5014000;28;20042;-82
2023/07/28 05:31:17;;;;;;;4.78;3.08;;;;;;;;;;5015452;28;20045;-82
2023/07/28 05:33:44;;;;;;;5.00;2.67;;;;;;;;;;5016169;28;20129;-82
2023/07/28 05:36:11;;;;;;;5.00;2.63;;;;;;;;;;5016473;28;20213;-82
2023/07/28 05:38:37;;;;;;;5.40;3.05;;;;;;;;;;5012084;28;20049;-82
2023/07/28 05:41:05;;;;;;;4.60;2.35;;;;;;;;;;5007612;28;20049;-82
2023/07/28 05:43:33;;;;;;;5.20;2.88;;;;;;;;;;5012242;28;20104;-83
2023/07/28 05:46:01;;;;;;;5.35;3.03;;;;;;;;;;5011871;28;20053;-83
2023/07/28 05:48:31;;;;;;;5.93;2.70;;;;;;;;;;5007528;28;20068;-85
2023/07/28 05:50:57;;;;;;;4.00;2.47;;;;;;;;;;5006581;28;20336;-83
2023/07/28 05:53:24;;;;;;;4.90;2.72;;;;;;;;;;5013738;28;20045;-84
2023/07/28 05:55:52;;;;;;;5.65;3.00;;;;;;;;;;5011838;28;20118;-83
2023/07/28 05:58:19;;;;;;;4.93;2.50;;;;;;;;;;5016745;28;20053;-84
2023/07/28 06:00:47;;;;;;;5.63;2.72;;;;;;;;;;5013223;28;20048;-80
2023/07/28 06:03:14;;;;;;;5.20;2.72;;;;;;;;;;5014412;28;20453;-83
2023/07/28 06:05:41;;;;;;;6.20;2.90;;;;;;;;;;5010223;28;20054;-78
2023/07/28 06:08:08;;;;;;;4.35;2.45;;;;;;;;;;5008725;28;20050;-79
2023/07/28 06:10:35;;;;;;;4.60;2.83;;;;;;;;;;5014473;28;20061;-79
2023/07/28 06:13:02;;;;;;;5.65;3.05;;;;;;;;;;5011474;28;20042;-81
2023/07/28 06:15:28;;;;;;;5.53;3.05;;;;;;;;;;5005420;28;20042;-79
2023/07/28 06:17:57;;;;;;;4.45;2.90;;;;;;;;;;5011791;28;20042;-80
2023/07/28 06:20:24;;;;;;;5.22;2.60;;;;;;;;;;5016095;28;20046;-79
2023/07/28 06:22:50;;;;;;;4.55;2.60;;;;;;;;;;5014921;28;20125;-80
2023/07/28 06:25:17;;;;;;;5.63;2.65;;;;;;;;;;5013943;28;20054;-80
2023/07/28 06:27:44;;;;;;;4.63;2.38;;;;;;;;;;5015225;28;20136;-80
2023/07/28 06:30:11;;;;;;;4.25;2.65;;;;;;;;;;5015706;28;20046;-80
2023/07/28 06:32:38;;;;;;;4.95;2.58;;;;;;;;;;5017815;28;20053;-80
2023/07/28 06:35:09;;;;;;;4.80;2.83;;;;;;;;;;5015130;28;20504;-80
2023/07/28 06:37:37;;;;;;;6.75;2.80;;;;;;;;;;5016936;28;20512;-81
2023/07/28 06:40:05;;;;;;;6.82;2.85;;;;;;;;;;5015714;28;20056;-80
2023/07/28 06:42:32;;;;;;;3.83;2.22;;;;;;;;;;5019307;28;20079;-79
2023/07/28 06:44:58;;;;;;;5.93;3.05;;;;;;;;;;5017217;28;20129;-80
2023/07/28 06:47:25;;;;;;;4.63;2.42;;;;;;;;;;5015202;28;20046;-81
2023/07/28 06:49:51;;;;;;;5.93;2.60;;;;;;;;;;5019138;28;20054;-80
2023/07/28 06:52:19;;;;;;;5.00;2.70;;;;;;;;;;5025291;28;20053;-81
2023/07/28 06:54:47;;;;;;;5.25;2.85;;;;;;;;;;5024003;28;20520;-81
2023/07/28 06:57:13;;;;;;;6.25;2.80;;;;;;;;;;5015393;28;20096;-81
2023/07/28 06:59:40;;;;;;;5.47;2.75;;;;;;;;;;5014946;28;20049;-81
2023/07/28 07:02:07;;;;;;;4.47;2.88;;;;;;;;;;5015210;28;20046;-80
2023/07/28 07:04:33;;;;;;;5.72;3.05;;;;;;;;;;5014982;28;20058;-80
2023/07/28 07:07:00;;;;;;;5.25;2.97;;;;;;;;;;5019646;28;20105;-82
2023/07/28 07:09:28;;;;;;;5.13;2.67;;;;;;;;;;5020613;28;20061;-81
2023/07/28 07:11:56;;;;;;;3.63;2.35;;;;;;;;;;5018893;28;20124;-79
2023/07/28 07:14:22;;;;;;;5.20;2.70;;;;;;;;;;5017274;28;20057;-80
2023/07/28 07:16:50;;;;;;;4.60;2.72;;;;;;;;;;5017628;28;20042;-79
2023/07/28 07:19:16;;;;;;;5.65;2.40;;;;;;;;;;5014334;28;20052;-80
2023/07/28 07:21:44;;;;;;;4.10;2.47;;;;;;;;;;5016086;28;20050;-80
2023/07/28 07:24:13;;;;;;;5.88;2.50;;;;;;;;;;5021951;28;20054;-81
2023/07/28 07:26:41;;;;;;;5.40;2.67;;;;;;;;;;5025631;28;20077;-80
2023/07/28 07:29:08;;;;;;;4.85;2.72;;;;;;;;;;5019895;28;20579;-80
2023/07/28 07:31:34;;;;;;;5.18;2.88;;;;;;;;;;5016427;28;20064;-79
2023/07/28 07:34:01;;;;;;;4.68;2.55;;;;;;;;;;5016414;28;20044;-80
2023/07/28 07:36:27;;;;;;;4.78;2.35;;;;;;;;;;5016774;28;20050;-80
2023/07/28 07:38:54;;;;;;;4.68;2.60;;;;;;;;;;5016255;28;20042;-81
2023/07/28 07:41:23;;;;;;;5.68;2.55;;;;;;;;;;5017820;28;20052;-80
2023/07/28 07:43:53;;;;;;;5.28;3.13;;;;;;;;;;5016750;28;20125;-80
2023/07/28 07:46:20;;;;;;;6.25;2.75;;;;;;;;;;5018769;28;20042;-80
2023/07/28 07:48:47;;;;;;;5.43;2.72;;;;;;;;;;5017194;28;20129;-80
2023/07/28 07:51:15;;;;;;;4.68;2.80;;;;;;;;;;5017377;28;20042;-80
2023/07/28 07:53:41;;;;;;;4.72;2.90;;;;;;;;;;5014655;28;20058;-80
2023/07/28 07:56:08;;;;;;;6.05;3.08;;;;;;;;;;5018774;28;20183;-80
2023/07/28 07:58:35;;;;;;;4.68;2.53;;;;;;;;;;5007411;28;20054;-80
2023/07/28 08:01:04;;;;;;;4.60;2.65;;;;;;;;;;5014028;28;20057;-80
2023/07/28 08:03:31;;;;;;;4.80;2.30;;;;;;;;;;5013203;28;20044;-80
2023/07/28 08:05:58;;;;;;;4.38;2.63;;;;;;;;;;5017178;28;20358;-80
2023/07/28 08:08:26;;;;;;;5.60;3.08;;;;;;;;;;5016571;28;20048;-80
2023/07/28 08:10:53;;;;;;;4.40;2.30;;;;;;;;;;5015285;28;20567;-80
2023/07/28 08:13:20;;;;;;;5.63;2.60;;;;;;;;;;5015534;28;20420;-80
2023/07/28 08:15:47;;;;;;;4.75;2.40;;;;;;;;;;5007570;28;20052;-80
2023/07/28 08:18:15;;;;;;;5.35;2.50;;;;;;;;;;5011416;28;20519;-79
2023/07/28 08:20:42;;;;;;;5.07;2.58;;;;;;;;;;5014454;28;20762;-79
2023/07/28 08:23:09;;;;;;;4.72;2.30;;;;;;;;;;5010062;28;20042;-81
2023/07/28 08:25:36;;;;;;;5.22;2.60;;;;;;;;;;5006586;28;20049;-80
2023/07/28 08:28:02;;;;;;;6.25;2.28;;;;;;;;;;5014485;28;20056;-83
2023/07/28 08:30:29;;;;;;;5.05;2.53;;;;;;;;;;5016104;28;20041;-79
2023/07/28 08:32:57;;;;;;;4.53;2.40;;;;;;;;;;5015397;28;20366;-80
2023/07/28 08:35:25;;;;;;;4.00;2.15;;;;;;;;;;5015096;28;20064;-80
2023/07/28 08:37:51;;;;;;;4.60;2.47;;;;;;;;;;5017200;28;20381;-79
2023/07/28 08:40:19;;;;;;;5.88;2.83;;;;;;;;;;5018487;28;20046;-79
2023/07/28 08:42:45;;;;;;;4.32;2.78;;;;;;;;;;5015772;28;20056;-80
2023/07/28 08:45:13;;;;;;;4.80;2.35;;;;;;;;;;5018455;28;20080;-80
2023/07/28 08:47:39;;;;;;;4.30;2.20;;;;;;;;;;5015296;28;20528;-80
2023/07/28 08:50:07;;;;;;;5.25;2.55;;;;;;;;;;5015034;28;20038;-81
2023/07/28 08:52:35;;;;;;;3.55;2.10;;;;;;;;;;5010918;28;20049;-80
2023/07/28 08:55:01;;;;;;;3.88;2.05;;;;;;;;;;5016232;28;20483;-80
2023/07/28 08:57:28;;;;;;;3.58;2.10;;;;;;;;;;5016350;28;20046;-80
2023/07/28 08:59:55;;;;;;;4.40;2.58;;;;;;;;;;5013713;28;20049;-81
2023/07/28 09:02:22;;;;;;;4.97;2.20;;;;;;;;;;5014145;28;20132;-80
2023/07/28 09:04:50;;;;;;;4.78;2.72;;;;;;;;;;5014246;28;20528;-81
2023/07/28 09:07:16;;;;;;;5.55;2.22;;;;;;;;;;5015197;28;20042;-80
2023/07/28 09:09:46;;;;;;;4.80;2.58;;;;;;;;;;5015810;28;20053;-81
2023/07/28 09:12:13;;;;;;;3.97;2.35;;;;;;;;;;5016144;28;20050;-80
2023/07/28 09:14:39;;;;;;;6.32;2.17;;;;;;;;;;5021953;28;20068;-80
2023/07/28 09:17:11;;;;;;;4.18;1.98;;;;;;;;;;5019026;28;20068;-80
2023/07/28 09:19:51;;;;;;;5.38;2.80;;;;;;;;;;5018338;28;20042;-80
2023/07/28 09:22:18;;;;;;;4.40;2.15;;;;;;;;;;5015117;28;20054;-80
2023/07/28 09:24:47;;;;;;;5.00;2.45;;;;;;;;;;5015232;28;20053;-80
2023/07/28 09:27:21;;;;;;;4.75;2.30;;;;;;;;;;5016264;28;20097;-80
2023/07/28 09:29:49;;;;;;;4.45;2.10;;;;;;;;;;5019320;28;20068;-80
2023/07/28 09:32:15;;;;;;;4.85;2.60;;;;;;;;;;5020884;28;20056;-80
2023/07/28 09:34:42;;;;;;;4.60;2.53;;;;;;;;;;5014200;28;20042;-81
2023/07/28 09:37:10;;;;;;;4.30;2.30;;;;;;;;;;5015825;28;20140;-80
2023/07/28 09:39:37;;;;;;;4.60;2.30;;;;;;;;;;5015765;28;20716;-80
2023/07/28 09:42:09;;;;;;;4.43;2.30;;;;;;;;;;5009238;28;20072;-80
2023/07/28 09:44:35;;;;;;;5.57;2.40;;;;;;;;;;5011270;28;20060;-80
2023/07/28 09:47:02;;;;;;;3.83;2.28;;;;;;;;;;5013814;28;20046;-80
2023/07/28 09:49:34;;;;;;;4.05;2.00;;;;;;;;;;5014911;28;20416;-80
2023/07/28 09:52:05;;;;;;;5.25;3.10;;;;;;;;;;5014140;28;20160;-79
2023/07/28 09:54:36;;;;;;;4.90;2.17;;;;;;;;;;5014726;28;20045;-80
2023/07/28 09:57:09;;;;;;;3.83;2.00;;;;;;;;;;5014635;28;20046;-80
2023/07/28 09:59:39;;;;;;;4.55;2.50;;;;;;;;;;5015555;28;20054;-80
2023/07/28 10:02:06;;;;;;;5.47;2.30;;;;;;;;;;5015004;28;20061;-80
2023/07/28 10:04:33;;;;;;;4.03;2.28;;;;;;;;;;5014618;28;20038;-79
2023/07/28 10:07:01;;;;;;;5.70;2.25;;;;;;;;;;5015212;28;20113;-79
2023/07/28 10:09:30;;;;;;;5.40;2.42;;;;;;;;;;5014578;28;20575;-79
2023/07/28 10:11:57;;;;;;;4.22;2.20;;;;;;;;;;5015306;28;20050;-79
2023/07/28 10:14:30;;;;;;;6.25;3.20;;;;;;;;;;5015125;28;20141;-80
2023/07/28 10:16:57;;;;;;;4.47;2.47;;;;;;;;;;5017034;28;20078;-79
2023/07/28 10:19:26;;;;;;;4.90;2.20;;;;;;;;;;5016229;28;20064;-81
2023/07/28 10:22:00;;;;;;;3.95;2.25;;;;;;;;;;5012892;28;20065;-80
2023/07/28 10:24:53;;;;;;;5.45;2.28;;;;;;;;;;5017879;28;20042;-81
2023/07/28 10:27:35;;;;;;;4.65;2.40;;;;;;;;;;5016383;28;20041;-81
2023/07/28 10:30:06;;;;;;;3.92;2.22;;;;;;;;;;5015182;28;20479;-80
2023/07/28 10:32:39;;;;;;;4.95;2.60;;;;;;;;;;5016612;28;20137;-81
2023/07/28 10:35:08;;;;;;;4.43;2.15;;;;;;;;;;5015894;28;20437;-80
2023/07/28 10:37:36;;;;;;;3.95;2.13;;;;;;;;;;5017408;28;20065;-80
2023/07/28 10:40:27;;;;;;;4.30;2.33;;;;;;;;;;5006666;28;20054;-81
2023/07/28 10:42:55;;;;;;;3.70;2.00;;;;;;;;;;5022992;28;20054;-81
2023/07/28 10:45:26;;;;;;;4.70;2.10;;;;;;;;;;5028287;28;20038;-80
2023/07/28 10:47:55;;;;;;;4.75;2.40;;;;;;;;;;5025969;28;20046;-81
2023/07/28 10:50:22;;;;;;;4.78;2.40;;;;;;;;;;5026945;28;20054;-82
2023/07/28 10:52:49;;;;;;;4.43;2.35;;;;;;;;;;5027879;28;20073;-82
2023/07/28 10:55:16;;;;;;;4.65;2.30;;;;;;;;;;5025500;28;20041;-82
2023/07/28 10:57:46;;;;;;;4.07;2.33;;;;;;;;;;5025526;28;20805;-84
2023/07/28 11:00:16;;;;;;;5.40;2.60;;;;;;;;;;5028567;28;20056;-85
2023/07/28 11:02:45;;;;;;;6.45;2.72;;;;;;;;;;5028574;28;20050;-84
2023/07/28 11:05:14;;;;;;;4.57;2.30;;;;;;;;;;5029452;28;20042;-82
2023/07/28 11:10:11;;;;;;;6.10;3.07;;;;;;;;;;5007097;28;20465;-76
2023/07/28 11:12:43;;;;;;;5.38;2.33;;;;;;;;;;5006202;28;20491;-77
2023/07/28 11:15:12;;;;;;;5.32;2.50;;;;;;;;;;5012118;28;20049;-76
2023/07/28 11:17:39;;;;;;;4.97;2.72;;;;;;;;;;5011079;28;20050;-77
2023/07/28 11:20:16;;;;;;;4.55;2.25;;;;;;;;;;5016528;28;20042;-77
2023/07/28 11:22:43;;;;;;;4.60;2.40;;;;;;;;;;5014071;28;20516;-77
2023/07/28 11:25:10;;;;;;;4.32;2.10;;;;;;;;;;5021362;28;20518;-77
2023/07/28 11:27:37;;;;;;;4.95;2.35;;;;;;;;;;5009688;28;20050;-77
2023/07/28 11:30:04;;;;;;;4.63;2.50;;;;;;;;;;5011718;28;20084;-77
2023/07/28 11:32:32;;;;;;;5.15;2.63;;;;;;;;;;5007542;28;20042;-77
2023/07/28 11:35:04;;;;;;;4.65;2.30;;;;;;;;;;5010523;28;20100;-77
2023/07/28 11:37:34;;;;;;;4.93;2.25;;;;;;;;;;5015215;28;20045;-77
2023/07/28 11:40:02;;;;;;;3.80;2.13;;;;;;;;;;5010567;28;20508;-77
2023/07/28 11:42:29;;;;;;;4.43;2.33;;;;;;;;;;5012186;28;20048;-77
2023/07/28 11:44:56;;;;;;;4.80;2.58;;;;;;;;;;5004601;28;20677;-76
2023/07/28 11:47:23;;;;;;;5.97;2.97;;;;;;;;;;5002249;28;20065;-76
2023/07/28 11:49:50;;;;;;;4.25;2.25;;;;;;;;;;5009868;28;20078;-76
2023/07/28 11:52:17;;;;;;;5.47;2.50;;;;;;;;;;5002858;28;20076;-77
2023/07/28 11:54:46;;;;;;;4.80;2.75;;;;;;;;;;5009627;28;20062;-77
2023/07/28 11:57:13;;;;;;;4.25;2.20;;;;;;;;;;5012006;28;20544;-76
2023/07/28 11:59:41;;;;;;;4.75;2.65;;;;;;;;;;5013401;28;20050;-78
2023/07/28 12:02:08;;;;;;;5.55;2.70;;;;;;;;;;5005183;28;20053;-77
2023/07/28 12:04:37;;;;;;;4.32;2.50;;;;;;;;;;5008970;28;20508;-77
2023/07/28 12:07:06;;;;;;;4.35;2.45;;;;;;;;;;5013423;28;20104;-77
2023/07/28 12:09:33;;;;;;;4.28;2.40;;;;;;;;;;5001630;28;20053;-77
2023/07/28 12:12:01;;;;;;;4.50;2.35;;;;;;;;;;5016144;28;20065;-77
2023/07/28 12:14:34;;;;;;;3.63;2.08;;;;;;;;;;5006631;28;20060;-77
2023/07/28 12:17:02;;;;;;;3.90;2.20;;;;;;;;;;5006900;28;20046;-76
2023/07/28 12:19:31;;;;;;;3.72;2.20;;;;;;;;;;5010306;28;20089;-76
2023/07/28 12:22:00;;;;;;;4.07;2.60;;;;;;;;;;5010701;28;20041;-76
2023/07/28 12:24:27;;;;;;;5.47;2.35;;;;;;;;;;5004837;28;20042;-76
2023/07/28 12:26:53;;;;;;;4.15;2.47;;;;;;;;;;5018761;28;20620;-77
2023/07/28 12:29:28;;;;;;;4.15;2.20;;;;;;;;;;5018772;28;20042;-77
2023/07/28 12:31:55;;;;;;;4.13;2.45;;;;;;;;;;5003503;28;20038;-77
2023/07/28 12:34:22;;;;;;;5.00;2.58;;;;;;;;;;5009639;28;20045;-77
2023/07/28 12:36:50;;;;;;;4.43;2.58;;;;;;;;;;5011616;28;20053;-77
2023/07/28 12:39:19;;;;;;;6.72;2.45;;;;;;;;;;5008829;28;20046;-77
2023/07/28 12:41:46;;;;;;;4.78;2.80;;;;;;;;;;5020101;28;20057;-77
2023/07/28 12:44:13;;;;;;;4.45;2.65;;;;;;;;;;5007916;28;20041;-77
2023/07/28 12:46:41;;;;;;;4.63;2.50;;;;;;;;;;5011877;28;20452;-77
2023/07/28 12:49:09;;;;;;;4.82;2.47;;;;;;;;;;5006109;28;20052;-77
2023/07/28 12:51:36;;;;;;;4.50;2.65;;;;;;;;;;5004169;28;20978;-76
2023/07/28 12:54:02;;;;;;;5.82;2.70;;;;;;;;;;5006478;28;20049;-78
2023/07/28 12:56:29;;;;;;;5.07;2.50;;;;;;;;;;5016338;28;20073;-78
2023/07/28 12:58:56;;;;;;;4.97;2.70;;;;;;;;;;5017115;28;20448;-76
2023/07/28 13:01:25;;;;;;;5.28;2.55;;;;;;;;;;5017726;28;20049;-77
2023/07/28 13:03:57;;;;;;;4.50;2.47;;;;;;;;;;5007952;28;20050;-77
2023/07/28 13:06:23;;;;;;;3.97;2.45;;;;;;;;;;5008976;28;20066;-76
2023/07/28 13:08:50;;;;;;;4.47;2.63;;;;;;;;;;5006261;28;20049;-76
2023/07/28 13:11:17;;;;;;;5.18;2.90;;;;;;;;;;5008095;28;20050;-76
2023/07/28 13:13:43;;;;;;;4.75;2.70;;;;;;;;;;5011490;28;20137;-76
2023/07/28 13:16:10;;;;;;;4.25;2.38;;;;;;;;;;5011522;28;20048;-76
2023/07/28 13:18:37;;;;;;;5.28;2.45;;;;;;;;;;5020712;28;20120;-76
2023/07/28 13:21:06;;;;;;;4.35;2.22;;;;;;;;;;5005309;28;20209;-76
2023/07/28 13:23:36;;;;;;;4.72;2.67;;;;;;;;;;5006500;28;20053;-78
2023/07/28 13:26:04;;;;;;;;;;;;;;;;;;5015214;28;20496;-77
2023/07/28 13:28:30;;;;;;;4.82;2.38;;;;;;;;;;5013988;28;19937;-79
2023/07/28 13:30:57;;;;;;;5.13;2.60;;;;;;;;;;5010262;28;20417;-77
2023/07/28 13:33:24;;;;;;;4.20;2.58;;;;;;;;;;5005787;28;20060;-76
2023/07/28 13:35:51;;;;;;;4.13;2.47;;;;;;;;;;5003984;28;20676;-76
2023/07/28 13:38:18;;;;;;;6.15;2.60;;;;;;;;;;5007573;28;20046;-76
2023/07/28 13:40:45;;;;;;;4.22;2.55;;;;;;;;;;5000169;28;20042;-77
2023/07/28 13:43:12;;;;;;;5.15;2.50;;;;;;;;;;5004004;28;20062;-77
2023/07/28 13:45:38;;;;;;;5.13;2.70;;;;;;;;;;5005236;28;20045;-78
2023/07/28 13:48:05;;;;;;;5.07;2.75;;;;;;;;;;5012669;28;20450;-77
2023/07/28 13:50:32;;;;;;;5.15;2.58;;;;;;;;;;5023836;28;20037;-78
2023/07/28 13:52:58;;;;;;;4.28;2.63;;;;;;;;;;5022224;28;20064;-78
2023/07/28 13:55:28;;;;;;;5.72;2.72;;;;;;;;;;5019914;28;20057;-77
2023/07/28 13:57:55;;;;;;;;;;;;;;;;;;5011139;28;20056;-76
2023/07/28 14:00:22;;;;;;;5.20;2.72;;;;;;;;;;5013351;28;20291;-77
2023/07/28 14:02:48;;;;;;;4.78;2.60;;;;;;;;;;5018612;28;20423;-78
2023/07/28 14:05:19;;;;;;;4.95;2.80;;;;;;;;;;5023008;28;20054;-76
2023/07/28 14:07:46;;;;;;;4.50;2.70;;;;;;;;;;5007086;28;20689;-77
2023/07/28 14:10:12;;;;;;;5.35;2.90;;;;;;;;;;5015072;28;20070;-77
2023/07/28 14:12:40;;;;;;;5.15;3.00;;;;;;;;;;5013542;28;20570;-77
2023/07/28 14:15:08;;;;;;;4.85;2.50;;;;;;;;;;5013384;28;20041;-77
2023/07/28 14:17:35;;;;;;;4.70;2.58;;;;;;;;;;5007900;28;20499;-77
2023/07/28 14:20:02;;;;;;;5.00;2.85;;;;;;;;;;5013172;28;20045;-76
2023/07/28 14:22:28;;;;;;;4.45;2.72;;;;;;;;;;5027703;28;20052;-76
2023/07/28 14:24:55;;;;;;;5.30;2.50;;;;;;;;;;5021190;28;20050;-77
2023/07/28 14:27:21;;;;;;;4.38;2.60;;;;;;;;;;5007928;28;20431;-77
2023/07/28 14:29:49;;;;;;;4.57;2.53;;;;;;;;;;5019803;28;20044;-77
2023/07/28 14:32:16;;;;;;;5.05;3.10;;;;;;;;;;5012173;28;20045;-77
2023/07/28 14:34:43;;;;;;;5.90;2.80;;;;;;;;;;5010784;28;20049;-78
2023/07/28 14:37:11;;;;;;;4.32;2.70;;;;;;;;;;5017443;28;20042;-77
2023/07/28 14:39:37;;;;;;;5.63;2.97;;;;;;;;;;5020817;28;20111;-77
2023/07/28 14:42:05;;;;;;;5.68;2.90;;;;;;;;;;5022511;28;20054;-77
2023/07/28 14:44:34;;;;;;;5.00;2.80;;;;;;;;;;5024607;28;20059;-77
2023/07/28 14:47:02;;;;;;;4.50;2.63;;;;;;;;;;5013428;28;20603;-77